Time;durP1;ratioP1;P1;durP2;ratioP2;P2;SDS_P1;SDS_P2;PMS_P1;PMS_P2;Temp;Humidity;BMP_temperature;BMP_pressure;BME280_temperature;BME280_humidity;BME280_pressure;Samples;Min_cycle;Max_cycle;Signal;HPM_P1;HPM_P2
2022/08/21 00:02:13;;;;;;;13.60;8.07;;;15.40;1.00;;;;;;5099004;28;20909;-52
2022/08/21 00:04:43;;;;;;;10.10;8.20;;;15.30;1.00;;;;;;5098256;28;20537;-54
2022/08/21 00:07:10;;;;;;;12.57;9.73;;;15.30;1.00;;;;;;5098648;28;20909;-57
2022/08/21 00:09:39;;;;;;;11.23;8.83;;;15.30;1.00;;;;;;5098589;28;20533;-56
2022/08/21 00:12:07;;;;;;;11.27;9.07;;;15.20;1.00;;;;;;5097501;28;20506;-52
2022/08/21 00:14:38;;;;;;;12.20;9.20;;;15.20;1.60;;;;;;5097669;28;21046;-51
2022/08/21 00:17:06;;;;;;;12.00;9.20;;;15.10;14.60;;;;;;5098610;28;20555;-55
2022/08/21 00:19:37;;;;;;;10.90;8.67;;;15.10;76.80;;;;;;5098235;28;20488;-56
2022/08/21 00:22:06;;;;;;;9.07;7.90;;;15.00;99.90;;;;;;5098327;28;20452;-57
2022/08/21 00:24:33;;;;;;;10.87;9.03;;;15.00;88.80;;;;;;5097939;28;20960;-58
2022/08/21 00:27:03;;;;;;;11.47;9.63;;;15.10;97.70;;;;;;5098645;28;20497;-50
2022/08/21 00:29:31;;;;;;;8.53;7.67;;;15.10;47.00;;;;;;5098480;28;20439;-53
2022/08/21 00:32:01;;;;;;;11.20;8.20;;;15.10;16.60;;;;;;5097756;28;21007;-58
2022/08/21 00:34:28;;;;;;;11.50;8.93;;;15.00;1.00;;;;;;5097513;28;20467;-57
2022/08/21 00:36:58;;;;;;;21.73;8.63;;;15.00;1.00;;;;;;5097390;28;20469;-54
2022/08/21 00:39:33;;;;;;;10.00;8.13;;;15.00;1.00;;;;;;5097840;28;20466;-56
2022/08/21 00:42:01;;;;;;;9.63;8.40;;;14.90;33.80;;;;;;5097616;28;20452;-51
2022/08/21 00:44:34;;;;;;;9.70;8.60;;;14.80;99.90;;;;;;5097806;28;20481;-54
2022/08/21 00:47:01;;;;;;;10.47;9.37;;;14.80;99.90;;;;;;5096900;28;20849;-57
2022/08/21 00:49:31;;;;;;;9.03;8.10;;;14.80;99.90;;;;;;5096333;28;20468;-56
2022/08/21 00:52:02;;;;;;;8.73;7.80;;;14.80;99.90;;;;;;5089742;28;20579;-57
2022/08/21 00:54:35;;;;;;;12.07;8.00;;;14.80;99.90;;;;;;5077155;28;20536;-57
2022/08/21 00:57:06;;;;;;;10.93;8.20;;;14.90;99.90;;;;;;5092064;28;20442;-55
2022/08/21 00:59:37;;;;;;;9.47;8.53;;;14.90;99.90;;;;;;5097302;28;20537;-52
2022/08/21 01:02:07;;;;;;;15.00;9.03;;;14.90;99.90;;;;;;5077078;28;20545;-57
2022/08/21 01:04:35;;;;;;;13.37;9.93;;;14.90;99.90;;;;;;5077472;28;20440;-58
2022/08/21 01:07:05;;;;;;;10.23;8.77;;;14.90;99.90;;;;;;5089104;28;20438;-57
2022/08/21 01:09:38;;;;;;;10.20;9.20;;;14.90;99.90;;;;;;5097575;28;20750;-57
2022/08/21 01:12:06;;;;;;;10.13;9.03;;;14.80;99.90;;;;;;5097501;28;20536;-54
2022/08/21 01:14:43;;;;;;;10.33;9.30;;;14.80;99.90;;;;;;5097220;28;20470;-54
2022/08/21 01:17:12;;;;;;;9.30;8.17;;;14.80;99.90;;;;;;5096846;28;20446;-54
2022/08/21 01:19:40;;;;;;;11.47;10.30;;;14.90;99.90;;;;;;5096977;28;20487;-58
2022/08/21 01:22:12;;;;;;;10.60;9.27;;;14.90;99.90;;;;;;5097333;28;20460;-53
2022/08/21 01:24:39;;;;;;;8.90;7.70;;;14.90;99.90;;;;;;5097273;28;20460;-57
2022/08/21 01:27:06;;;;;;;11.53;8.87;;;14.80;99.90;;;;;;5096696;28;20549;-52
2022/08/21 01:29:38;;;;;;;10.40;8.83;;;14.80;99.90;;;;;;5097770;28;20555;-55
2022/08/21 01:32:13;;;;;;;11.10;9.97;;;14.80;99.90;;;;;;5096081;28;20477;-58
2022/08/21 01:34:45;;;;;;;12.40;10.37;;;14.90;99.90;;;;;;5096801;28;20434;-55
2022/08/21 01:37:18;;;;;;;12.03;9.70;;;14.90;99.90;;;;;;5096758;28;20533;-56
2022/08/21 01:39:45;;;;;;;12.67;9.90;;;14.90;99.90;;;;;;5097473;28;20435;-56
2022/08/21 01:42:13;;;;;;;10.40;9.40;;;14.80;99.90;;;;;;5096004;28;20430;-55
2022/08/21 01:44:44;;;;;;;11.80;8.93;;;14.80;99.90;;;;;;5096967;28;20555;-55
2022/08/21 01:47:13;;;;;;;26.87;12.00;;;14.80;99.90;;;;;;5097392;28;20886;-56
2022/08/21 01:49:42;;;;;;;12.43;9.40;;;14.80;99.90;;;;;;5096610;28;20554;-54
2022/08/21 01:52:12;;;;;;;11.13;8.70;;;14.70;99.90;;;;;;5097527;28;20505;-55
2022/08/21 01:54:44;;;;;;;10.67;9.37;;;14.70;99.90;;;;;;5096817;28;20435;-56
2022/08/21 01:57:12;;;;;;;11.77;10.13;;;14.70;99.90;;;;;;5096989;28;20558;-58
2022/08/21 01:59:42;;;;;;;14.27;10.70;;;14.80;99.90;;;;;;5095832;28;20460;-57
2022/08/21 02:02:09;;;;;;;12.17;10.30;;;14.70;99.90;;;;;;5097144;28;20742;-58
2022/08/21 02:04:36;;;;;;;11.50;10.23;;;14.70;99.90;;;;;;5096030;28;20469;-53
2022/08/21 02:07:12;;;;;;;12.60;9.93;;;14.60;99.90;;;;;;5096885;28;20467;-55
2022/08/21 02:09:42;;;;;;;12.53;9.43;;;14.50;99.90;;;;;;5096786;28;20513;-56
2022/08/21 02:12:12;;;;;;;11.27;8.67;;;14.50;99.90;;;;;;5097107;28;20866;-53
2022/08/21 02:14:39;;;;;;;11.43;10.07;;;14.50;99.90;;;;;;5096362;28;20541;-57
2022/08/21 02:17:07;;;;;;;12.33;9.47;;;14.50;99.90;;;;;;5096804;28;20464;-58
2022/08/21 02:19:34;;;;;;;10.87;9.77;;;14.40;99.90;;;;;;5096386;28;20458;-56
2022/08/21 02:22:01;;;;;;;10.80;9.70;;;14.40;99.90;;;;;;5092112;28;20462;-55
2022/08/21 02:24:29;;;;;;;11.30;10.07;;;14.30;99.90;;;;;;5095711;28;20434;-57
2022/08/21 02:26:56;;;;;;;11.63;10.40;;;14.30;99.90;;;;;;5096255;28;20471;-55
2022/08/21 02:29:28;;;;;;;9.60;8.60;;;14.30;99.90;;;;;;5096788;28;20864;-59
2022/08/21 02:32:04;;;;;;;11.30;10.10;;;14.20;99.90;;;;;;5095327;28;20491;-58
2022/08/21 02:34:32;;;;;;;11.17;9.03;;;14.20;99.90;;;;;;5096374;28;20467;-57
2022/08/21 02:37:01;;;;;;;10.70;9.23;;;14.10;99.90;;;;;;5096224;28;20519;-58
2022/08/21 02:39:30;;;;;;;11.90;9.50;;;14.10;99.90;;;;;;5096924;28;20470;-56
2022/08/21 02:41:57;;;;;;;12.70;10.20;;;14.10;99.90;;;;;;5096124;28;20438;-59
2022/08/21 02:44:32;;;;;;;11.90;9.83;;;14.10;99.90;;;;;;5096446;28;20534;-56
2022/08/21 02:46:59;;;;;;;10.37;9.27;;;14.00;99.90;;;;;;5096866;28;20463;-56
2022/08/21 02:49:27;;;;;;;10.60;9.60;;;14.00;99.90;;;;;;5096685;28;20495;-54
2022/08/21 02:51:54;;;;;;;11.27;9.40;;;13.90;99.90;;;;;;5096004;28;20469;-53
2022/08/21 02:54:21;;;;;;;11.70;10.10;;;13.90;99.90;;;;;;5099009;28;20732;-58
2022/08/21 02:56:48;;;;;;;10.57;9.50;;;13.80;1.00;;;;;;5100161;28;20468;-58
2022/08/21 02:59:15;;;;;;;11.07;9.33;;;13.70;1.00;;;;;;5100208;28;20725;-55
2022/08/21 03:01:48;;;;;;;16.57;10.17;;;13.70;1.00;;;;;;5100055;28;20441;-58
2022/08/21 03:04:16;;;;;;;11.40;9.57;;;13.80;34.80;;;;;;5100135;28;20763;-59
2022/08/21 03:06:43;;;;;;;11.63;9.40;;;13.80;99.90;;;;;;5099474;28;20465;-57
2022/08/21 03:09:13;;;;;;;9.83;8.83;;;13.80;1.00;;;;;;5100205;28;20456;-57
2022/08/21 03:11:41;;;;;;;10.60;9.60;;;13.70;1.00;;;;;;5098768;28;20453;-58
2022/08/21 03:14:08;;;;;;;9.70;8.80;;;13.80;1.00;;;;;;5099897;28;20441;-55
2022/08/21 03:16:35;;;;;;;10.80;9.70;;;13.80;1.00;;;;;;5099750;28;20471;-59
2022/08/21 03:19:04;;;;;;;12.77;9.57;;;13.90;1.00;;;;;;5098934;28;20485;-57
2022/08/21 03:21:32;;;;;;;15.17;10.33;;;13.90;1.00;;;;;;5099344;28;20909;-59
2022/08/21 03:23:59;;;;;;;13.13;10.77;;;13.90;1.00;;;;;;5099123;28;20526;-59
2022/08/21 03:26:26;;;;;;;10.23;9.23;;;13.90;4.30;;;;;;5098906;28;20548;-58
2022/08/21 03:28:54;;;;;;;10.53;9.30;;;13.90;99.90;;;;;;5099302;28;20464;-58
2022/08/21 03:31:21;;;;;;;10.03;9.03;;;13.90;99.90;;;;;;5099117;28;20443;-56
2022/08/21 03:33:54;;;;;;;12.23;9.60;;;14.00;99.90;;;;;;5098304;28;20463;-58
2022/08/21 03:36:23;;;;;;;12.80;10.00;;;14.00;99.90;;;;;;5099249;28;20911;-59
2022/08/21 03:38:51;;;;;;;11.03;9.83;;;14.00;1.00;;;;;;5099142;28;20464;-56
2022/08/21 03:41:20;;;;;;;10.30;9.20;;;14.00;1.00;;;;;;5099263;28;20468;-57
2022/08/21 03:43:47;;;;;;;9.80;8.40;;;13.90;99.90;;;;;;5098505;28;20954;-56
2022/08/21 03:46:15;;;;;;;12.40;8.67;;;13.90;99.90;;;;;;5098394;28;20436;-55
2022/08/21 03:48:42;;;;;;;9.30;8.10;;;13.80;99.90;;;;;;5099292;28;20534;-56
2022/08/21 03:51:09;;;;;;;19.77;8.50;;;13.70;99.90;;;;;;5098051;28;20431;-56
2022/08/21 03:53:39;;;;;;;9.27;8.37;;;13.70;99.90;;;;;;5098481;28;20492;-58
2022/08/21 03:56:07;;;;;;;10.60;8.90;;;13.70;99.90;;;;;;5099247;28;20763;-59
2022/08/21 03:58:34;;;;;;;9.53;8.50;;;13.60;99.90;;;;;;5098707;28;20441;-59
2022/08/21 04:01:04;;;;;;;13.10;9.23;;;13.60;1.00;;;;;;5098749;28;20466;-58
2022/08/21 04:03:31;;;;;;;10.70;8.97;;;13.60;1.00;;;;;;5098226;28;20510;-56
2022/08/21 04:05:59;;;;;;;9.47;8.57;;;13.50;1.00;;;;;;5098146;28;20461;-59
2022/08/21 04:08:26;;;;;;;12.80;10.30;;;13.50;1.00;;;;;;5098575;28;20439;-57
2022/08/21 04:10:57;;;;;;;10.43;8.57;;;13.50;1.00;;;;;;5095557;28;20905;-59
2022/08/21 04:13:26;;;;;;;10.63;9.67;;;13.50;1.00;;;;;;5078461;28;20489;-57
2022/08/21 04:15:55;;;;;;;12.17;9.60;;;13.50;1.00;;;;;;5094866;28;20518;-59
2022/08/21 04:18:25;;;;;;;11.60;10.23;;;13.40;1.00;;;;;;5097643;28;20519;-59
2022/08/21 04:20:56;;;;;;;9.93;8.83;;;13.50;1.00;;;;;;5098321;28;20438;-59
2022/08/21 04:23:24;;;;;;;9.60;8.60;;;13.40;1.00;;;;;;5098667;28;20452;-56
2022/08/21 04:25:52;;;;;;;11.00;9.50;;;13.40;1.00;;;;;;5097993;28;20440;-59
2022/08/21 04:28:21;;;;;;;8.87;7.90;;;13.30;1.00;;;;;;5098246;28;20707;-59
2022/08/21 04:30:48;;;;;;;10.40;7.90;;;13.30;1.00;;;;;;5097178;28;20461;-58
2022/08/21 04:33:18;;;;;;;10.93;8.90;;;13.20;1.00;;;;;;5097745;28;20561;-55
2022/08/21 04:35:45;;;;;;;10.07;8.30;;;13.20;1.00;;;;;;5098157;28;20849;-57
2022/08/21 04:38:16;;;;;;;8.47;7.63;;;13.20;1.00;;;;;;5097564;28;20560;-58
2022/08/21 04:40:44;;;;;;;9.80;8.30;;;13.20;1.00;;;;;;5098373;28;20762;-59
2022/08/21 04:43:14;;;;;;;8.57;7.63;;;13.20;1.00;;;;;;5098025;28;20482;-57
2022/08/21 04:45:47;;;;;;;10.13;8.73;;;13.20;99.90;;;;;;5097925;28;20458;-58
2022/08/21 04:48:15;;;;;;;12.73;7.97;;;13.20;99.90;;;;;;5098084;28;20938;-59
2022/08/21 04:50:47;;;;;;;10.83;8.50;;;13.20;99.90;;;;;;5098013;28;20460;-56
2022/08/21 04:53:21;;;;;;;9.53;8.53;;;13.20;99.90;;;;;;5097949;28;20465;-55
2022/08/21 04:55:50;;;;;;;9.87;8.33;;;13.20;99.90;;;;;;5097428;28;20435;-56
2022/08/21 04:58:19;;;;;;;12.30;9.23;;;13.20;1.00;;;;;;5097826;28;20461;-59
2022/08/21 05:00:49;;;;;;;9.07;8.00;;;13.20;1.00;;;;;;5097291;28;20434;-57
2022/08/21 05:03:18;;;;;;;10.10;8.00;;;13.30;1.00;;;;;;5097776;28;20506;-60
2022/08/21 05:05:46;;;;;;;9.77;7.80;;;13.30;1.00;;;;;;5098053;28;20434;-59
2022/08/21 05:08:23;;;;;;;9.60;8.63;;;13.30;1.00;;;;;;5096421;28;20457;-59
2022/08/21 05:10:50;;;;;;;9.60;7.50;;;13.40;1.00;;;;;;5097540;28;20514;-59
2022/08/21 05:13:18;;;;;;;9.63;8.33;;;13.40;1.00;;;;;;5097753;28;20587;-59
2022/08/21 05:15:45;;;;;;;8.93;8.13;;;13.40;1.00;;;;;;5097060;28;20735;-59
2022/08/21 05:18:14;;;;;;;11.40;7.33;;;13.50;99.90;;;;;;5096710;28;20488;-60
2022/08/21 05:20:41;;;;;;;10.53;9.13;;;13.50;99.90;;;;;;5097355;28;20446;-59
2022/08/21 05:23:11;;;;;;;10.80;9.40;;;13.60;99.90;;;;;;5096913;28;20937;-59
2022/08/21 05:25:43;;;;;;;11.40;10.30;;;13.60;99.90;;;;;;5097718;28;20431;-59
2022/08/21 05:28:10;;;;;;;11.23;9.77;;;13.60;99.90;;;;;;5097182;28;20460;-58
2022/08/21 05:30:38;;;;;;;11.50;10.27;;;13.60;1.00;;;;;;5096920;28;20464;-59
2022/08/21 05:33:07;;;;;;;13.00;9.97;;;13.50;1.00;;;;;;5096515;28;20469;-59
2022/08/21 05:35:39;;;;;;;9.90;8.90;;;13.50;99.90;;;;;;5097604;28;20951;-59
2022/08/21 05:38:09;;;;;;;13.07;10.10;;;13.60;99.90;;;;;;5096778;28;20460;-59
2022/08/21 05:40:36;;;;;;;10.63;9.60;;;13.60;1.00;;;;;;5097188;28;20559;-58
2022/08/21 05:43:04;;;;;;;11.90;10.63;;;13.60;1.00;;;;;;5096797;28;20453;-59
2022/08/21 05:45:34;;;;;;;10.53;9.53;;;13.80;1.00;;;;;;5097556;28;20437;-57
2022/08/21 05:48:14;;;;;;;14.63;10.97;;;13.90;1.00;;;;;;5096936;28;20474;-56
2022/08/21 05:50:46;;;;;;;11.50;10.37;;;14.10;99.90;;;;;;5076487;28;20556;-57
2022/08/21 05:53:15;;;;;;;10.23;8.87;;;14.20;99.90;;;;;;5083993;28;20461;-59
2022/08/21 05:55:45;;;;;;;13.13;10.00;;;14.40;99.90;;;;;;5097229;28;20438;-56
2022/08/21 05:58:14;;;;;;;13.07;9.83;;;14.50;99.90;;;;;;5097428;28;20529;-59
2022/08/21 06:00:42;;;;;;;12.20;11.00;;;14.60;90.20;;;;;;5096722;28;20569;-59
2022/08/21 06:03:16;;;;;;;15.23;10.87;;;14.70;1.00;;;;;;5097211;28;20435;-59
2022/08/21 06:05:50;;;;;;;12.13;10.93;;;14.80;1.00;;;;;;5097604;28;20441;-59
2022/08/21 06:08:21;;;;;;;17.03;12.00;;;14.90;1.00;;;;;;5096729;28;20460;-59
2022/08/21 06:10:51;;;;;;;12.50;10.40;;;15.10;1.00;;;;;;5096371;28;20468;-60
2022/08/21 06:13:22;;;;;;;11.67;10.53;;;15.30;1.00;;;;;;5096360;28;20451;-59
2022/08/21 06:15:52;;;;;;;11.60;10.50;;;15.50;99.90;;;;;;5095063;28;20435;-59
2022/08/21 06:18:19;;;;;;;12.67;11.37;;;15.60;99.90;;;;;;5094524;28;20461;-59
2022/08/21 06:20:48;;;;;;;11.40;9.47;;;15.80;99.90;;;;;;5095818;28;20820;-59
2022/08/21 06:23:15;;;;;;;10.93;9.87;;;16.00;99.90;;;;;;5096732;28;20451;-59
2022/08/21 06:25:50;;;;;;;12.30;10.00;;;16.30;22.80;;;;;;5096884;28;20435;-59
2022/08/21 06:28:20;;;;;;;13.27;11.37;;;16.50;1.00;;;;;;5098901;28;20464;-60
2022/08/21 06:30:47;;;;;;;11.33;10.07;;;16.80;1.00;;;;;;5100024;28;20430;-60
2022/08/21 06:33:14;;;;;;;11.97;10.77;;;17.10;1.00;;;;;;5099875;28;20469;-60
2022/08/21 06:35:42;;;;;;;12.60;11.17;;;17.30;1.00;;;;;;5100266;28;20465;-60
2022/08/21 06:38:10;;;;;;;12.97;10.83;;;17.70;1.00;;;;;;5100910;28;20431;-59
2022/08/21 06:40:38;;;;;;;13.73;10.47;;;18.10;1.00;;;;;;5099475;28;20890;-59
2022/08/21 06:43:10;;;;;;;12.57;11.20;;;18.20;1.00;;;;;;5100312;28;20431;-60
2022/08/21 06:45:38;;;;;;;14.00;10.53;;;18.40;1.00;;;;;;5100482;28;20431;-60
2022/08/21 06:48:06;;;;;;;14.10;12.07;;;18.70;99.90;;;;;;5100638;28;20439;-59
2022/08/21 06:50:34;;;;;;;14.80;11.07;;;18.80;99.90;;;;;;5100281;28;20876;-59
2022/08/21 06:53:03;;;;;;;12.77;11.07;;;19.00;99.90;;;;;;5100221;28;20439;-60
2022/08/21 06:55:32;;;;;;;12.63;11.43;;;19.10;99.90;;;;;;5099811;28;20901;-60
2022/08/21 06:58:01;;;;;;;14.70;11.67;;;19.30;99.90;;;;;;5100353;28;20868;-59
2022/08/21 07:00:28;;;;;;;12.07;10.87;;;19.80;99.90;;;;;;5100259;28;20460;-59
2022/08/21 07:02:57;;;;;;;13.80;12.40;;;20.00;99.90;;;;;;5099397;28;20435;-58
2022/08/21 07:05:26;;;;;;;12.50;11.23;;;20.20;99.90;;;;;;5100131;28;20460;-58
2022/08/21 07:07:57;;;;;;;10.60;9.50;;;20.50;99.90;;;;;;5099844;28;20509;-59
2022/08/21 07:10:27;;;;;;;13.80;9.77;;;20.70;99.90;;;;;;5100254;28;20873;-57
2022/08/21 07:13:02;;;;;;;13.27;9.70;;;21.00;99.90;;;;;;5099368;28;20464;-58
2022/08/21 07:15:31;;;;;;;12.33;9.17;;;21.20;99.90;;;;;;5099712;28;20441;-58
2022/08/21 07:17:59;;;;;;;13.33;9.67;;;21.50;99.90;;;;;;5099920;28;20427;-59
2022/08/21 07:20:28;;;;;;;10.63;9.17;;;21.70;99.90;;;;;;5099532;28;20495;-59
2022/08/21 07:23:04;;;;;;;12.83;9.27;;;21.70;99.90;;;;;;5098994;28;20431;-57
2022/08/21 07:25:33;;;;;;;10.50;9.50;;;21.70;99.90;;;;;;5099413;28;20470;-59
2022/08/21 07:28:04;;;;;;;10.57;9.10;;;21.80;99.90;;;;;;5099193;28;20818;-59
2022/08/21 07:30:31;;;;;;;15.30;8.47;;;22.10;99.90;;;;;;5099035;28;20445;-58
2022/08/21 07:32:59;;;;;;;10.90;9.33;;;22.30;99.90;;;;;;5097277;28;20471;-59
2022/08/21 07:35:27;;;;;;;12.83;9.70;;;22.50;99.90;;;;;;5099930;28;20423;-58
2022/08/21 07:37:55;;;;;;;11.47;8.50;;;22.50;99.90;;;;;;5099189;28;20480;-60
2022/08/21 07:40:22;;;;;;;10.70;7.80;;;22.60;99.90;;;;;;5097979;28;20463;-59
2022/08/21 07:42:55;;;;;;;12.47;7.37;;;22.80;99.90;;;;;;5099034;28;20466;-59
2022/08/21 07:45:28;;;;;;;8.50;7.23;;;23.00;99.90;;;;;;5098818;28;20546;-55
2022/08/21 07:47:55;;;;;;;10.77;7.30;;;22.80;99.90;;;;;;5099460;28;20434;-58
2022/08/21 07:50:23;;;;;;;9.97;7.40;;;23.40;99.90;;;;;;5099105;28;20466;-56
2022/08/21 07:52:53;;;;;;;11.17;7.93;;;23.80;99.90;;;;;;5099129;28;20923;-60
2022/08/21 07:55:22;;;;;;;9.70;6.90;;;24.10;99.90;;;;;;5098519;28;20575;-60
2022/08/21 07:57:50;;;;;;;9.10;5.80;;;24.30;99.90;;;;;;5099071;28;20456;-60
2022/08/21 08:00:19;;;;;;;7.60;5.37;;;24.30;99.90;;;;;;5097999;28;20467;-58
2022/08/21 08:02:55;;;;;;;8.50;5.70;;;23.80;99.90;;;;;;5098043;28;20470;-58
2022/08/21 08:05:25;;;;;;;9.27;5.23;;;23.80;99.90;;;;;;5097844;28;20766;-57
2022/08/21 08:07:56;;;;;;;6.70;5.20;;;24.10;99.90;;;;;;5098383;28;20705;-57
2022/08/21 08:10:27;;;;;;;7.40;4.93;;;24.00;99.90;;;;;;5098692;28;20461;-60
2022/08/21 08:12:55;;;;;;;6.37;4.70;;;23.60;99.90;;;;;;5098990;28;20939;-58
2022/08/21 08:15:28;;;;;;;9.00;5.70;;;23.60;99.90;;;;;;5097888;28;20579;-59
2022/08/21 08:18:02;;;;;;;5.43;4.90;;;23.90;99.90;;;;;;5098674;28;20466;-57
2022/08/21 08:20:30;;;;;;;10.40;5.30;;;24.00;99.90;;;;;;5096706;28;20467;-56
2022/08/21 08:22:58;;;;;;;9.93;4.80;;;24.00;99.90;;;;;;5098211;28;20434;-60
2022/08/21 08:25:27;;;;;;;6.13;4.30;;;24.00;99.90;;;;;;5097683;28;21026;-60
2022/08/21 08:27:54;;;;;;;6.13;4.10;;;24.30;99.90;;;;;;5095958;28;20431;-60
2022/08/21 08:30:23;;;;;;;8.70;3.97;;;24.20;99.90;;;;;;5097435;28;20452;-59
2022/08/21 08:32:55;;;;;;;5.80;4.03;;;24.60;99.90;;;;;;5097465;28;20777;-58
2022/08/21 08:35:24;;;;;;;7.13;3.53;;;25.00;99.90;;;;;;5097649;28;20924;-60
2022/08/21 08:37:52;;;;;;;7.77;4.13;;;25.20;99.90;;;;;;5097805;28;20460;-59
2022/08/21 08:40:24;;;;;;;7.13;3.73;;;24.70;99.90;;;;;;5097945;28;20475;-59
2022/08/21 08:42:52;;;;;;;7.93;3.40;;;24.70;99.90;;;;;;5097887;28;20547;-59
2022/08/21 08:45:24;;;;;;;5.43;3.70;;;24.90;99.90;;;;;;5097298;28;21051;-59
2022/08/21 08:47:59;;;;;;;7.80;3.87;;;25.10;99.90;;;;;;5098022;28;20464;-60
2022/08/21 08:50:37;;;;;;;7.30;3.13;;;25.20;99.90;;;;;;5097575;28;20533;-59
2022/08/21 08:53:10;;;;;;;5.33;3.80;;;25.60;99.90;;;;;;5097687;28;20464;-59
2022/08/21 08:55:40;;;;;;;6.13;3.23;;;25.60;99.90;;;;;;5097464;28;20578;-60
2022/08/21 08:58:10;;;;;;;9.90;3.57;;;25.60;99.90;;;;;;5097111;28;20464;-59
2022/08/21 09:00:39;;;;;;;7.73;3.93;;;25.40;99.90;;;;;;5097037;28;20551;-59
2022/08/21 09:03:13;;;;;;;6.73;3.63;;;25.50;99.90;;;;;;5097905;28;20960;-59
2022/08/21 09:05:47;;;;;;;5.07;3.80;;;25.80;99.90;;;;;;5097613;28;20460;-60
2022/08/21 09:08:49;;;;;;;3.93;3.30;;;25.80;99.90;;;;;;5097654;28;20439;-59
2022/08/21 09:11:29;;;;;;;5.33;3.50;;;26.00;99.90;;;;;;5097308;28;20728;-60
2022/08/21 09:14:10;;;;;;;4.60;3.13;;;25.80;99.90;;;;;;5097778;28;20546;-60
2022/08/21 09:16:49;;;;;;;4.20;3.80;;;26.20;99.90;;;;;;5096980;28;20460;-60
2022/08/21 09:19:30;;;;;;;6.60;3.50;;;26.00;99.90;;;;;;5097639;28;20587;-59
2022/08/21 09:22:08;;;;;;;6.30;4.83;;;25.70;99.90;;;;;;5097011;28;20976;-60
2022/08/21 09:24:52;;;;;;;4.77;3.43;;;26.10;99.90;;;;;;5097490;28;20459;-60
2022/08/21 09:27:23;;;;;;;6.03;3.93;;;26.50;99.90;;;;;;5096833;28;20507;-60
2022/08/21 09:29:57;;;;;;;8.40;4.27;;;26.70;99.90;;;;;;5096637;28;20460;-60
2022/08/21 09:32:27;;;;;;;6.03;4.40;;;26.70;99.90;;;;;;5096089;28;20978;-59
2022/08/21 09:35:02;;;;;;;5.03;3.77;;;27.00;99.90;;;;;;5096649;28;20462;-59
2022/08/21 09:37:35;;;;;;;6.23;3.80;;;26.80;99.90;;;;;;5097931;28;20455;-59
2022/08/21 09:40:16;;;;;;;3.73;3.07;;;26.80;99.90;;;;;;5097315;28;20461;-56
2022/08/21 09:42:54;;;;;;;5.10;4.20;;;26.70;99.90;;;;;;5096492;28;20461;-57
2022/08/21 09:45:21;;;;;;;5.77;3.20;;;26.30;99.90;;;;;;5097201;28;20824;-60
2022/08/21 09:47:50;;;;;;;7.53;3.27;;;26.30;99.90;;;;;;5096989;28;20464;-60
2022/08/21 09:50:25;;;;;;;7.30;3.63;;;26.20;99.90;;;;;;5097048;28;20475;-58
2022/08/21 09:52:57;;;;;;;6.33;2.73;;;25.70;99.90;;;;;;5096519;28;20559;-57
2022/08/21 09:58:20;;;;;;;5.47;4.13;;;26.80;99.90;;;;;;5094804;28;20974;-60
2022/08/21 10:00:57;;;;;;;7.40;4.10;;;27.20;99.90;;;;;;5085457;28;20528;-60
2022/08/21 10:03:25;;;;;;;4.77;3.40;;;27.40;99.90;;;;;;5096983;28;20547;-60
2022/08/21 10:05:59;;;;;;;5.80;4.00;;;27.70;99.90;;;;;;5099832;28;20436;-60
2022/08/21 10:08:35;;;;;;;9.57;3.90;;;27.80;99.90;;;;;;5099735;28;20464;-60
2022/08/21 10:11:05;;;;;;;7.27;3.67;;;27.60;99.90;;;;;;5100222;28;20851;-60
2022/08/21 10:13:46;;;;;;;10.53;4.30;;;27.90;99.90;;;;;;5100049;28;20462;-60
2022/08/21 10:16:25;;;;;;;7.47;3.87;;;27.60;99.90;;;;;;5100426;28;20578;-57
2022/08/21 10:19:02;;;;;;;7.70;3.87;;;27.70;99.90;;;;;;5100230;28;20491;-59
2022/08/21 10:21:36;;;;;;;6.90;3.70;;;27.30;99.90;;;;;;5100597;28;20467;-57
2022/08/21 10:24:19;;;;;;;5.00;3.60;;;27.80;99.90;;;;;;5100069;28;20457;-57
2022/08/21 10:26:56;;;;;;;7.60;4.07;;;27.70;99.90;;;;;;5100958;28;20567;-59
2022/08/21 10:29:43;;;;;;;5.47;3.60;;;28.40;99.90;;;;;;5100959;28;20438;-60
2022/08/21 10:32:27;;;;;;;3.40;3.00;;;28.40;99.90;;;;;;5101020;28;20459;-59
2022/08/21 10:35:03;;;;;;;3.90;3.03;;;28.10;99.90;;;;;;5099855;28;20450;-60
2022/08/21 10:37:45;;;;;;;6.50;4.00;;;27.80;99.90;;;;;;5101062;28;20642;-60
2022/08/21 10:40:24;;;;;;;4.87;3.30;;;27.80;99.90;;;;;;5100013;28;20555;-57
2022/08/21 10:43:05;;;;;;;5.23;3.50;;;28.20;99.90;;;;;;5100918;28;20494;-57
2022/08/21 10:45:47;;;;;;;4.60;3.20;;;27.90;99.90;;;;;;5099630;28;20881;-59
2022/08/21 10:48:23;;;;;;;4.87;3.17;;;28.10;99.90;;;;;;5099262;28;20561;-56
2022/08/21 10:50:56;;;;;;;6.83;3.20;;;28.30;99.90;;;;;;5100452;28;20763;-59
2022/08/21 10:53:47;;;;;;;4.90;2.90;;;28.30;99.90;;;;;;5100430;28;20889;-59
2022/08/21 10:56:33;;;;;;;3.80;2.80;;;28.20;99.90;;;;;;5099411;28;20779;-59
2022/08/21 10:59:16;;;;;;;10.70;3.70;;;27.70;99.90;;;;;;5100211;28;20799;-59
2022/08/21 11:01:50;;;;;;;3.70;3.10;;;28.40;99.90;;;;;;5096646;28;20904;-56
2022/08/21 11:04:24;;;;;;;3.80;3.20;;;29.10;99.90;;;;;;5099752;28;20872;-58
2022/08/21 11:07:07;;;;;;;5.40;3.03;;;29.00;99.90;;;;;;5098855;28;20468;-56
2022/08/21 11:09:38;;;;;;;8.10;3.40;;;29.40;99.90;;;;;;5099941;28;20468;-58
2022/08/21 11:12:25;;;;;;;4.93;3.53;;;28.70;99.90;;;;;;5099118;28;20431;-56
2022/08/21 11:15:01;;;;;;;3.10;2.80;;;28.50;99.90;;;;;;5082578;28;20492;-54
2022/08/21 11:17:36;;;;;;;6.20;3.20;;;28.10;99.90;;;;;;5099096;28;20468;-56
2022/08/21 11:20:13;;;;;;;4.53;3.20;;;27.90;99.90;;;;;;5099166;28;20483;-56
2022/08/21 11:22:50;;;;;;;5.00;3.17;;;28.20;99.90;;;;;;5098694;28;20873;-51
2022/08/21 11:25:23;;;;;;;4.50;3.30;;;28.60;99.90;;;;;;5099746;28;20470;-56
2022/08/21 11:27:57;;;;;;;5.00;3.27;;;28.80;99.90;;;;;;5098797;28;20465;-58
2022/08/21 11:30:27;;;;;;;3.70;2.80;;;28.90;99.90;;;;;;5098798;28;20466;-57
2022/08/21 11:33:10;;;;;;;4.17;3.17;;;28.60;99.90;;;;;;5098369;28;20470;-56
2022/08/21 11:35:44;;;;;;;7.70;2.47;;;28.70;99.90;;;;;;5099790;28;20492;-55
2022/08/21 11:38:25;;;;;;;2.87;2.57;;;28.00;99.90;;;;;;5099124;28;20480;-57
2022/08/21 11:41:28;;;;;;;2.60;2.20;;;28.00;99.90;;;;;;5099039;28;20853;-57
2022/08/21 11:44:05;;;;;;;3.23;2.43;;;27.90;99.90;;;;;;5081526;28;20463;-59
2022/08/21 11:46:45;;;;;;;3.40;2.60;;;27.70;99.90;;;;;;5099150;28;20781;-53
2022/08/21 11:49:24;;;;;;;4.10;2.93;;;27.20;99.90;;;;;;5098262;28;20464;-54
2022/08/21 11:51:57;;;;;;;3.33;2.33;;;27.00;99.90;;;;;;5098892;28;20463;-55
2022/08/21 11:54:30;;;;;;;4.47;2.80;;;26.70;99.90;;;;;;5087366;28;20456;-51
2022/08/21 11:57:07;;;;;;;3.63;3.07;;;27.10;99.90;;;;;;5098882;28;20435;-54
2022/08/21 11:59:41;;;;;;;4.20;2.70;;;27.40;99.90;;;;;;5098255;28;20464;-52
2022/08/21 12:02:15;;;;;;;4.27;3.13;;;27.70;99.90;;;;;;5098588;28;20460;-52
2022/08/21 12:04:52;;;;;;;4.00;2.50;;;28.40;99.90;;;;;;5098339;28;20465;-52
2022/08/21 12:07:34;;;;;;;7.30;3.57;;;29.00;99.90;;;;;;5098689;28;20464;-55
2022/08/21 12:10:05;;;;;;;4.80;2.70;;;28.90;99.90;;;;;;5097887;28;20546;-58
2022/08/21 12:12:34;;;;;;;4.43;2.70;;;28.90;99.90;;;;;;5098035;28;20559;-55
2022/08/21 12:15:29;;;;;;;5.33;2.90;;;29.30;99.90;;;;;;5098081;28;20925;-53
2022/08/21 12:18:00;;;;;;;3.60;2.63;;;29.90;99.90;;;;;;5098609;28;20737;-54
2022/08/21 12:20:42;;;;;;;3.70;2.37;;;30.10;99.90;;;;;;5097114;28;20488;-57
2022/08/21 12:23:31;;;;;;;2.97;2.33;;;29.20;99.90;;;;;;5098506;28;20522;-55
2022/08/21 12:26:19;;;;;;;2.97;2.23;;;28.70;99.90;;;;;;5095787;28;20551;-56
2022/08/21 12:28:49;;;;;;;2.93;2.53;;;29.30;99.90;;;;;;5087580;28;20466;-56
2022/08/21 12:31:26;;;;;;;2.70;1.70;;;29.50;99.90;;;;;;5092362;28;20471;-57
2022/08/21 12:34:02;;;;;;;4.77;2.60;;;29.50;99.90;;;;;;5097150;28;20488;-54
2022/08/21 12:36:49;;;;;;;2.90;2.60;;;29.70;99.90;;;;;;5097432;28;20523;-53
2022/08/21 12:39:21;;;;;;;2.80;2.47;;;30.20;99.90;;;;;;5094978;28;20441;-57
2022/08/21 12:41:52;;;;;;;3.40;2.60;;;30.30;99.90;;;;;;5094379;28;20559;-51
2022/08/21 12:44:31;;;;;;;4.87;2.40;;;30.90;99.90;;;;;;5096542;28;20870;-56
2022/08/21 12:47:04;;;;;;;3.23;2.93;;;30.30;99.90;;;;;;5096359;28;20452;-57
2022/08/21 12:49:38;;;;;;;3.23;2.60;;;30.40;99.90;;;;;;5097404;28;20490;-54
2022/08/21 12:52:13;;;;;;;3.00;2.20;;;30.50;99.90;;;;;;5097028;28;20456;-54
2022/08/21 12:54:43;;;;;;;4.13;2.57;;;30.30;99.90;;;;;;5097105;28;20456;-53
2022/08/21 12:57:20;;;;;;;3.10;2.67;;;30.60;99.90;;;;;;5097876;28;20543;-53
2022/08/21 12:59:54;;;;;;;3.90;2.60;;;30.30;99.90;;;;;;5097239;28;20807;-53
2022/08/21 13:02:36;;;;;;;4.97;2.70;;;30.70;99.90;;;;;;5096607;28;20468;-58
2022/08/21 13:05:13;;;;;;;5.13;2.63;;;30.20;99.90;;;;;;5097755;28;20543;-53
2022/08/21 13:07:49;;;;;;;2.77;2.37;;;29.60;99.90;;;;;;5087794;28;20541;-56
2022/08/21 13:10:21;;;;;;;3.13;2.23;;;29.50;99.90;;;;;;5095604;28;20542;-55